sensor_id;sensor_type;location;lat;lon;timestamp;P1;durP1;ratioP1;P2;durP2;ratioP2
12650;SDS011;6390;49.400;8.670;2022-11-15T00:00:52;2.67;;;2.20;;
12650;SDS011;6390;49.400;8.670;2022-11-15T00:03:22;2.88;;;2.53;;
12650;SDS011;6390;49.400;8.670;2022-11-15T00:05:51;4.78;;;2.58;;
12650;SDS011;6390;49.400;8.670;2022-11-15T00:08:17;2.75;;;2.28;;
12650;SDS011;6390;49.400;8.670;2022-11-15T00:10:53;3.28;;;2.60;;
12650;SDS011;6390;49.400;8.670;2022-11-15T00:13:21;2.20;;;2.00;;
12650;SDS011;6390;49.400;8.670;2022-11-15T00:15:47;2.40;;;2.20;;
12650;SDS011;6390;49.400;8.670;2022-11-15T00:18:13;2.42;;;2.15;;
12650;SDS011;6390;49.400;8.670;2022-11-15T00:20:40;2.72;;;2.33;;
12650;SDS011;6390;49.400;8.670;2022-11-15T00:23:06;3.10;;;2.30;;
12650;SDS011;6390;49.400;8.670;2022-11-15T00:25:32;2.28;;;2.08;;
12650;SDS011;6390;49.400;8.670;2022-11-15T00:27:59;2.60;;;2.17;;
12650;SDS011;6390;49.400;8.670;2022-11-15T00:30:26;2.85;;;2.15;;
12650;SDS011;6390;49.400;8.670;2022-11-15T00:32:52;2.70;;;2.08;;
12650;SDS011;6390;49.400;8.670;2022-11-15T00:35:19;2.28;;;2.00;;
12650;SDS011;6390;49.400;8.670;2022-11-15T00:37:45;2.65;;;2.13;;
12650;SDS011;6390;49.400;8.670;2022-11-15T00:40:12;3.35;;;2.00;;
12650;SDS011;6390;49.400;8.670;2022-11-15T00:42:39;3.67;;;2.25;;
12650;SDS011;6390;49.400;8.670;2022-11-15T00:45:06;2.60;;;2.10;;
12650;SDS011;6390;49.400;8.670;2022-11-15T00:47:32;3.45;;;2.40;;
12650;SDS011;6390;49.400;8.670;2022-11-15T00:49:59;2.25;;;2.05;;
12650;SDS011;6390;49.400;8.670;2022-11-15T00:52:25;2.20;;;1.90;;
12650;SDS011;6390;49.400;8.670;2022-11-15T00:54:51;2.75;;;2.22;;
12650;SDS011;6390;49.400;8.670;2022-11-15T00:57:17;2.65;;;2.30;;
12650;SDS011;6390;49.400;8.670;2022-11-15T00:59:43;2.83;;;2.28;;
12650;SDS011;6390;49.400;8.670;2022-11-15T01:02:09;2.50;;;2.28;;
12650;SDS011;6390;49.400;8.670;2022-11-15T01:04:35;3.20;;;2.40;;
12650;SDS011;6390;49.400;8.670;2022-11-15T01:07:01;3.80;;;2.30;;
12650;SDS011;6390;49.400;8.670;2022-11-15T01:09:27;3.00;;;2.45;;
12650;SDS011;6390;49.400;8.670;2022-11-15T01:11:53;3.47;;;2.08;;
12650;SDS011;6390;49.400;8.670;2022-11-15T01:14:19;3.03;;;2.30;;
12650;SDS011;6390;49.400;8.670;2022-11-15T01:16:45;2.95;;;2.35;;
12650;SDS011;6390;49.400;8.670;2022-11-15T01:19:11;3.30;;;2.50;;
12650;SDS011;6390;49.400;8.670;2022-11-15T01:21:37;2.35;;;2.13;;
12650;SDS011;6390;49.400;8.670;2022-11-15T01:24:04;2.10;;;1.90;;
12650;SDS011;6390;49.400;8.670;2022-11-15T01:26:30;2.28;;;2.08;;
12650;SDS011;6390;49.400;8.670;2022-11-15T01:28:56;2.15;;;1.95;;
12650;SDS011;6390;49.400;8.670;2022-11-15T01:31:22;3.97;;;2.40;;
12650;SDS011;6390;49.400;8.670;2022-11-15T01:33:48;2.67;;;2.10;;
12650;SDS011;6390;49.400;8.670;2022-11-15T01:36:18;2.35;;;2.08;;
12650;SDS011;6390;49.400;8.670;2022-11-15T01:38:47;2.30;;;1.98;;
12650;SDS011;6390;49.400;8.670;2022-11-15T01:41:20;3.40;;;2.08;;
12650;SDS011;6390;49.400;8.670;2022-11-15T01:43:53;3.00;;;1.85;;
12650;SDS011;6390;49.400;8.670;2022-11-15T01:46:41;2.67;;;2.30;;
12650;SDS011;6390;49.400;8.670;2022-11-15T01:49:13;2.15;;;1.95;;
12650;SDS011;6390;49.400;8.670;2022-11-15T01:51:43;2.50;;;2.03;;
12650;SDS011;6390;49.400;8.670;2022-11-15T01:54:10;2.40;;;1.95;;
12650;SDS011;6390;49.400;8.670;2022-11-15T01:56:42;2.28;;;2.00;;
12650;SDS011;6390;49.400;8.670;2022-11-15T01:59:11;2.20;;;2.00;;
12650;SDS011;6390;49.400;8.670;2022-11-15T02:01:38;2.72;;;2.10;;
12650;SDS011;6390;49.400;8.670;2022-11-15T02:04:26;2.65;;;2.15;;
12650;SDS011;6390;49.400;8.670;2022-11-15T02:06:52;2.55;;;2.17;;
12650;SDS011;6390;49.400;8.670;2022-11-15T02:09:18;2.50;;;1.95;;
12650;SDS011;6390;49.400;8.670;2022-11-15T02:11:45;2.65;;;2.05;;
12650;SDS011;6390;49.400;8.670;2022-11-15T02:14:12;3.03;;;1.95;;
12650;SDS011;6390;49.400;8.670;2022-11-15T02:24:49;2.67;;;2.10;;
12650;SDS011;6390;49.400;8.670;2022-11-15T02:27:36;2.33;;;2.13;;
12650;SDS011;6390;49.400;8.670;2022-11-15T02:30:34;2.33;;;2.00;;
12650;SDS011;6390;49.400;8.670;2022-11-15T02:36:02;2.53;;;2.03;;
12650;SDS011;6390;49.400;8.670;2022-11-15T02:38:40;3.47;;;1.95;;
12650;SDS011;6390;49.400;8.670;2022-11-15T02:41:46;2.35;;;2.10;;
12650;SDS011;6390;49.400;8.670;2022-11-15T02:44:31;2.38;;;2.17;;
12650;SDS011;6390;49.400;8.670;2022-11-15T02:47:04;2.95;;;2.10;;
12650;SDS011;6390;49.400;8.670;2022-11-15T02:49:43;3.90;;;2.30;;
12650;SDS011;6390;49.400;8.670;2022-11-15T02:52:19;2.30;;;1.92;;
12650;SDS011;6390;49.400;8.670;2022-11-15T02:57:31;1.88;;;1.75;;
12650;SDS011;6390;49.400;8.670;2022-11-15T03:00:08;2.50;;;2.00;;
12650;SDS011;6390;49.400;8.670;2022-11-15T03:05:44;2.75;;;2.00;;
12650;SDS011;6390;49.400;8.670;2022-11-15T03:11:21;2.75;;;1.80;;
12650;SDS011;6390;49.400;8.670;2022-11-15T03:17:02;2.17;;;1.98;;
12650;SDS011;6390;49.400;8.670;2022-11-15T03:19:57;2.80;;;2.05;;
12650;SDS011;6390;49.400;8.670;2022-11-15T03:22:26;2.60;;;1.85;;
12650;SDS011;6390;49.400;8.670;2022-11-15T03:24:54;3.75;;;1.90;;
12650;SDS011;6390;49.400;8.670;2022-11-15T03:27:33;2.85;;;2.33;;
12650;SDS011;6390;49.400;8.670;2022-11-15T03:30:04;1.90;;;1.80;;
12650;SDS011;6390;49.400;8.670;2022-11-15T03:32:34;2.55;;;2.20;;
12650;SDS011;6390;49.400;8.670;2022-11-15T03:35:10;2.80;;;2.30;;
12650;SDS011;6390;49.400;8.670;2022-11-15T03:37:51;2.08;;;1.80;;
12650;SDS011;6390;49.400;8.670;2022-11-15T03:40:25;2.30;;;2.10;;
12650;SDS011;6390;49.400;8.670;2022-11-15T03:46:09;3.03;;;1.98;;
12650;SDS011;6390;49.400;8.670;2022-11-15T03:48:41;2.33;;;1.80;;
12650;SDS011;6390;49.400;8.670;2022-11-15T03:51:17;2.38;;;2.08;;
12650;SDS011;6390;49.400;8.670;2022-11-15T03:53:43;2.38;;;2.03;;
12650;SDS011;6390;49.400;8.670;2022-11-15T03:56:10;2.40;;;1.90;;
12650;SDS011;6390;49.400;8.670;2022-11-15T03:58:36;2.25;;;1.90;;
12650;SDS011;6390;49.400;8.670;2022-11-15T04:01:02;2.65;;;2.20;;
12650;SDS011;6390;49.400;8.670;2022-11-15T04:03:28;2.10;;;1.90;;
12650;SDS011;6390;49.400;8.670;2022-11-15T04:05:54;2.10;;;1.90;;
12650;SDS011;6390;49.400;8.670;2022-11-15T04:08:20;3.20;;;1.95;;
12650;SDS011;6390;49.400;8.670;2022-11-15T04:10:48;2.30;;;2.10;;
12650;SDS011;6390;49.400;8.670;2022-11-15T04:13:14;3.00;;;1.85;;
12650;SDS011;6390;49.400;8.670;2022-11-15T04:15:40;3.92;;;1.92;;
12650;SDS011;6390;49.400;8.670;2022-11-15T04:18:07;1.95;;;1.77;;
12650;SDS011;6390;49.400;8.670;2022-11-15T04:20:33;2.15;;;1.85;;
12650;SDS011;6390;49.400;8.670;2022-11-15T04:23:22;2.17;;;1.98;;
12650;SDS011;6390;49.400;8.670;2022-11-15T04:26:18;2.67;;;1.95;;
12650;SDS011;6390;49.400;8.670;2022-11-15T04:28:46;2.10;;;1.90;;
12650;SDS011;6390;49.400;8.670;2022-11-15T04:31:31;1.95;;;1.77;;
12650;SDS011;6390;49.400;8.670;2022-11-15T04:33:57;2.08;;;1.88;;
12650;SDS011;6390;49.400;8.670;2022-11-15T04:36:24;2.08;;;1.85;;
12650;SDS011;6390;49.400;8.670;2022-11-15T04:39:08;2.05;;;1.83;;
12650;SDS011;6390;49.400;8.670;2022-11-15T04:41:34;2.67;;;2.05;;
12650;SDS011;6390;49.400;8.670;2022-11-15T04:44:01;2.20;;;1.85;;
12650;SDS011;6390;49.400;8.670;2022-11-15T04:46:27;2.60;;;1.80;;
12650;SDS011;6390;49.400;8.670;2022-11-15T04:48:53;2.20;;;1.98;;
12650;SDS011;6390;49.400;8.670;2022-11-15T04:51:20;2.63;;;1.83;;
12650;SDS011;6390;49.400;8.670;2022-11-15T04:53:46;2.30;;;1.92;;
12650;SDS011;6390;49.400;8.670;2022-11-15T04:56:12;2.58;;;1.90;;
12650;SDS011;6390;49.400;8.670;2022-11-15T04:58:38;2.30;;;2.10;;
12650;SDS011;6390;49.400;8.670;2022-11-15T05:01:11;2.20;;;2.00;;
12650;SDS011;6390;49.400;8.670;2022-11-15T05:03:42;3.05;;;2.30;;
12650;SDS011;6390;49.400;8.670;2022-11-15T05:06:27;2.47;;;2.22;;
12650;SDS011;6390;49.400;8.670;2022-11-15T05:08:54;2.30;;;2.10;;
12650;SDS011;6390;49.400;8.670;2022-11-15T05:11:21;2.65;;;2.13;;
12650;SDS011;6390;49.400;8.670;2022-11-15T05:13:47;2.47;;;2.28;;
12650;SDS011;6390;49.400;8.670;2022-11-15T05:16:13;2.83;;;2.30;;
12650;SDS011;6390;49.400;8.670;2022-11-15T05:18:39;2.38;;;2.17;;
12650;SDS011;6390;49.400;8.670;2022-11-15T05:21:10;2.35;;;2.15;;
12650;SDS011;6390;49.400;8.670;2022-11-15T05:23:39;4.85;;;2.45;;
12650;SDS011;6390;49.400;8.670;2022-11-15T05:26:07;3.05;;;2.35;;
12650;SDS011;6390;49.400;8.670;2022-11-15T05:28:34;2.67;;;2.45;;
12650;SDS011;6390;49.400;8.670;2022-11-15T05:31:05;2.72;;;2.08;;
12650;SDS011;6390;49.400;8.670;2022-11-15T05:33:33;2.42;;;2.10;;
12650;SDS011;6390;49.400;8.670;2022-11-15T05:36:12;2.92;;;2.17;;
12650;SDS011;6390;49.400;8.670;2022-11-15T05:38:49;2.50;;;2.20;;
12650;SDS011;6390;49.400;8.670;2022-11-15T05:41:16;3.10;;;2.22;;
12650;SDS011;6390;49.400;8.670;2022-11-15T05:43:45;3.58;;;2.45;;
12650;SDS011;6390;49.400;8.670;2022-11-15T05:46:12;2.95;;;2.33;;
12650;SDS011;6390;49.400;8.670;2022-11-15T05:48:39;3.03;;;2.20;;
12650;SDS011;6390;49.400;8.670;2022-11-15T05:51:08;3.70;;;2.55;;
12650;SDS011;6390;49.400;8.670;2022-11-15T05:53:34;3.22;;;2.30;;
12650;SDS011;6390;49.400;8.670;2022-11-15T05:56:01;3.47;;;2.35;;
12650;SDS011;6390;49.400;8.670;2022-11-15T05:58:30;3.60;;;2.30;;
12650;SDS011;6390;49.400;8.670;2022-11-15T06:00:58;2.92;;;2.17;;
12650;SDS011;6390;49.400;8.670;2022-11-15T06:03:24;2.30;;;2.10;;
12650;SDS011;6390;49.400;8.670;2022-11-15T06:05:50;4.32;;;2.53;;
12650;SDS011;6390;49.400;8.670;2022-11-15T06:08:16;6.72;;;2.42;;
12650;SDS011;6390;49.400;8.670;2022-11-15T06:10:43;3.88;;;2.08;;
12650;SDS011;6390;49.400;8.670;2022-11-15T06:13:09;2.33;;;2.13;;
12650;SDS011;6390;49.400;8.670;2022-11-15T06:15:35;2.65;;;2.30;;
12650;SDS011;6390;49.400;8.670;2022-11-15T06:18:01;2.60;;;1.80;;
12650;SDS011;6390;49.400;8.670;2022-11-15T06:20:28;3.22;;;2.25;;
12650;SDS011;6390;49.400;8.670;2022-11-15T06:22:58;2.28;;;2.08;;
12650;SDS011;6390;49.400;8.670;2022-11-15T06:25:26;2.65;;;2.40;;
12650;SDS011;6390;49.400;8.670;2022-11-15T06:27:54;2.40;;;2.20;;
12650;SDS011;6390;49.400;8.670;2022-11-15T06:30:22;3.15;;;2.10;;
12650;SDS011;6390;49.400;8.670;2022-11-15T06:32:49;2.40;;;2.20;;
12650;SDS011;6390;49.400;8.670;2022-11-15T06:35:16;3.22;;;2.00;;
12650;SDS011;6390;49.400;8.670;2022-11-15T06:37:42;2.67;;;2.10;;
12650;SDS011;6390;49.400;8.670;2022-11-15T06:40:09;2.20;;;2.00;;
12650;SDS011;6390;49.400;8.670;2022-11-15T06:42:36;2.20;;;2.00;;
12650;SDS011;6390;49.400;8.670;2022-11-15T06:45:03;4.50;;;1.88;;
12650;SDS011;6390;49.400;8.670;2022-11-15T06:47:29;3.33;;;2.20;;
12650;SDS011;6390;49.400;8.670;2022-11-15T06:49:56;3.60;;;2.05;;
12650;SDS011;6390;49.400;8.670;2022-11-15T06:52:22;3.22;;;1.98;;
12650;SDS011;6390;49.400;8.670;2022-11-15T06:54:48;1.95;;;1.75;;
12650;SDS011;6390;49.400;8.670;2022-11-15T06:57:14;2.35;;;2.15;;
12650;SDS011;6390;49.400;8.670;2022-11-15T06:59:40;2.85;;;1.92;;
12650;SDS011;6390;49.400;8.670;2022-11-15T07:02:10;3.05;;;2.00;;
12650;SDS011;6390;49.400;8.670;2022-11-15T07:04:38;2.58;;;1.98;;
12650;SDS011;6390;49.400;8.670;2022-11-15T07:07:04;2.97;;;1.90;;
12650;SDS011;6390;49.400;8.670;2022-11-15T07:09:30;3.92;;;2.00;;
12650;SDS011;6390;49.400;8.670;2022-11-15T07:11:56;2.10;;;1.80;;
12650;SDS011;6390;49.400;8.670;2022-11-15T07:14:22;4.15;;;2.10;;
12650;SDS011;6390;49.400;8.670;2022-11-15T07:16:48;3.40;;;2.10;;
12650;SDS011;6390;49.400;8.670;2022-11-15T07:19:14;2.88;;;2.00;;
12650;SDS011;6390;49.400;8.670;2022-11-15T07:21:40;2.42;;;2.10;;
12650;SDS011;6390;49.400;8.670;2022-11-15T07:24:06;2.63;;;2.40;;
12650;SDS011;6390;49.400;8.670;2022-11-15T07:26:32;3.63;;;2.00;;
12650;SDS011;6390;49.400;8.670;2022-11-15T07:28:58;2.63;;;2.22;;
12650;SDS011;6390;49.400;8.670;2022-11-15T07:31:25;2.33;;;2.10;;
12650;SDS011;6390;49.400;8.670;2022-11-15T07:33:51;4.28;;;2.30;;
12650;SDS011;6390;49.400;8.670;2022-11-15T07:36:17;3.33;;;2.25;;
12650;SDS011;6390;49.400;8.670;2022-11-15T07:38:43;2.80;;;2.13;;
12650;SDS011;6390;49.400;8.670;2022-11-15T07:41:09;2.70;;;2.50;;
12650;SDS011;6390;49.400;8.670;2022-11-15T07:43:35;2.78;;;2.25;;
12650;SDS011;6390;49.400;8.670;2022-11-15T07:46:08;3.13;;;2.03;;
12650;SDS011;6390;49.400;8.670;2022-11-15T07:48:37;2.10;;;1.90;;
12650;SDS011;6390;49.400;8.670;2022-11-15T07:51:05;3.13;;;2.22;;
12650;SDS011;6390;49.400;8.670;2022-11-15T07:53:31;2.42;;;1.90;;
12650;SDS011;6390;49.400;8.670;2022-11-15T07:55:58;2.83;;;2.25;;
12650;SDS011;6390;49.400;8.670;2022-11-15T07:58:24;3.10;;;1.90;;
12650;SDS011;6390;49.400;8.670;2022-11-15T08:00:50;3.08;;;2.33;;
12650;SDS011;6390;49.400;8.670;2022-11-15T08:03:16;2.72;;;2.20;;
12650;SDS011;6390;49.400;8.670;2022-11-15T08:05:43;3.10;;;2.05;;
12650;SDS011;6390;49.400;8.670;2022-11-15T08:08:14;2.47;;;2.10;;
12650;SDS011;6390;49.400;8.670;2022-11-15T08:10:40;2.95;;;2.40;;
12650;SDS011;6390;49.400;8.670;2022-11-15T08:13:07;3.20;;;2.47;;
12650;SDS011;6390;49.400;8.670;2022-11-15T08:15:36;2.42;;;2.22;;
12650;SDS011;6390;49.400;8.670;2022-11-15T08:18:08;3.17;;;2.33;;
12650;SDS011;6390;49.400;8.670;2022-11-15T08:20:40;2.35;;;2.15;;
12650;SDS011;6390;49.400;8.670;2022-11-15T08:23:07;2.58;;;2.10;;
12650;SDS011;6390;49.400;8.670;2022-11-15T08:25:35;3.33;;;1.92;;
12650;SDS011;6390;49.400;8.670;2022-11-15T08:28:03;2.20;;;1.70;;
12650;SDS011;6390;49.400;8.670;2022-11-15T08:30:34;2.47;;;2.28;;
12650;SDS011;6390;49.400;8.670;2022-11-15T08:33:02;2.85;;;1.90;;
12650;SDS011;6390;49.400;8.670;2022-11-15T08:35:28;3.22;;;1.80;;
12650;SDS011;6390;49.400;8.670;2022-11-15T08:37:54;2.10;;;1.90;;
12650;SDS011;6390;49.400;8.670;2022-11-15T08:40:21;2.80;;;2.08;;
12650;SDS011;6390;49.400;8.670;2022-11-15T08:42:47;2.45;;;2.25;;
12650;SDS011;6390;49.400;8.670;2022-11-15T08:45:13;2.08;;;1.88;;
12650;SDS011;6390;49.400;8.670;2022-11-15T08:47:39;1.92;;;1.75;;
12650;SDS011;6390;49.400;8.670;2022-11-15T08:50:06;2.88;;;2.05;;
12650;SDS011;6390;49.400;8.670;2022-11-15T08:52:32;2.53;;;2.00;;
12650;SDS011;6390;49.400;8.670;2022-11-15T08:54:58;2.15;;;1.88;;
12650;SDS011;6390;49.400;8.670;2022-11-15T08:57:27;3.03;;;2.20;;
12650;SDS011;6390;49.400;8.670;2022-11-15T08:59:57;2.60;;;2.10;;
12650;SDS011;6390;49.400;8.670;2022-11-15T09:02:23;2.42;;;1.95;;
12650;SDS011;6390;49.400;8.670;2022-11-15T09:04:49;2.60;;;2.40;;
12650;SDS011;6390;49.400;8.670;2022-11-15T09:07:16;3.40;;;2.08;;
12650;SDS011;6390;49.400;8.670;2022-11-15T09:09:42;2.47;;;1.92;;
12650;SDS011;6390;49.400;8.670;2022-11-15T09:12:08;3.40;;;2.30;;
12650;SDS011;6390;49.400;8.670;2022-11-15T09:14:34;2.33;;;2.00;;
12650;SDS011;6390;49.400;8.670;2022-11-15T09:17:00;2.92;;;1.92;;
12650;SDS011;6390;49.400;8.670;2022-11-15T09:19:27;2.00;;;1.77;;
12650;SDS011;6390;49.400;8.670;2022-11-15T09:21:53;2.80;;;2.30;;
12650;SDS011;6390;49.400;8.670;2022-11-15T09:24:19;2.50;;;2.00;;
12650;SDS011;6390;49.400;8.670;2022-11-15T09:26:45;2.60;;;1.88;;
12650;SDS011;6390;49.400;8.670;2022-11-15T09:29:13;2.33;;;2.13;;
12650;SDS011;6390;49.400;8.670;2022-11-15T09:31:39;3.20;;;2.00;;
12650;SDS011;6390;49.400;8.670;2022-11-15T09:34:05;2.03;;;1.88;;
12650;SDS011;6390;49.400;8.670;2022-11-15T09:36:31;1.80;;;1.70;;
12650;SDS011;6390;49.400;8.670;2022-11-15T09:38:57;2.20;;;1.75;;
12650;SDS011;6390;49.400;8.670;2022-11-15T09:44:29;2.38;;;1.95;;
12650;SDS011;6390;49.400;8.670;2022-11-15T09:50:15;1.73;;;1.63;;
12650;SDS011;6390;49.400;8.670;2022-11-15T09:53:03;3.63;;;1.70;;
12650;SDS011;6390;49.400;8.670;2022-11-15T09:55:36;2.10;;;1.90;;
12650;SDS011;6390;49.400;8.670;2022-11-15T09:58:39;1.67;;;1.58;;
12650;SDS011;6390;49.400;8.670;2022-11-15T10:04:19;1.90;;;1.67;;
12650;SDS011;6390;49.400;8.670;2022-11-15T10:06:57;2.40;;;2.10;;
12650;SDS011;6390;49.400;8.670;2022-11-15T10:10:00;2.28;;;2.05;;
12650;SDS011;6390;49.400;8.670;2022-11-15T10:12:49;2.03;;;1.80;;
12650;SDS011;6390;49.400;8.670;2022-11-15T10:15:18;2.47;;;1.85;;
12650;SDS011;6390;49.400;8.670;2022-11-15T10:20:47;2.10;;;1.90;;
12650;SDS011;6390;49.400;8.670;2022-11-15T10:23:21;2.00;;;1.80;;
12650;SDS011;6390;49.400;8.670;2022-11-15T10:25:50;2.17;;;1.85;;
12650;SDS011;6390;49.400;8.670;2022-11-15T10:28:26;3.47;;;1.92;;
12650;SDS011;6390;49.400;8.670;2022-11-15T10:30:55;2.15;;;1.80;;
12650;SDS011;6390;49.400;8.670;2022-11-15T10:41:17;2.30;;;2.00;;
12650;SDS011;6390;49.400;8.670;2022-11-15T10:46:35;2.08;;;1.60;;
12650;SDS011;6390;49.400;8.670;2022-11-15T10:51:49;2.42;;;1.58;;
12650;SDS011;6390;49.400;8.670;2022-11-15T10:57:13;2.75;;;2.22;;
12650;SDS011;6390;49.400;8.670;2022-11-15T10:59:45;3.53;;;1.77;;
12650;SDS011;6390;49.400;8.670;2022-11-15T11:02:58;1.85;;;1.70;;
12650;SDS011;6390;49.400;8.670;2022-11-15T11:05:31;6.10;;;1.95;;
12650;SDS011;6390;49.400;8.670;2022-11-15T11:10:30;2.33;;;1.75;;
12650;SDS011;6390;49.400;8.670;2022-11-15T11:13:14;2.47;;;1.60;;
12650;SDS011;6390;49.400;8.670;2022-11-15T11:15:49;2.33;;;1.77;;
12650;SDS011;6390;49.400;8.670;2022-11-15T11:18:49;2.05;;;1.50;;
12650;SDS011;6390;49.400;8.670;2022-11-15T11:24:53;3.45;;;1.80;;
12650;SDS011;6390;49.400;8.670;2022-11-15T11:27:42;2.80;;;1.75;;
12650;SDS011;6390;49.400;8.670;2022-11-15T11:36:54;4.63;;;1.58;;
12650;SDS011;6390;49.400;8.670;2022-11-15T11:39:48;2.22;;;1.80;;
12650;SDS011;6390;49.400;8.670;2022-11-15T11:42:40;2.22;;;1.60;;
12650;SDS011;6390;49.400;8.670;2022-11-15T11:51:17;1.65;;;1.30;;
12650;SDS011;6390;49.400;8.670;2022-11-15T11:56:40;2.13;;;1.20;;
12650;SDS011;6390;49.400;8.670;2022-11-15T11:59:18;1.88;;;1.38;;
12650;SDS011;6390;49.400;8.670;2022-11-15T12:02:02;1.85;;;1.55;;
12650;SDS011;6390;49.400;8.670;2022-11-15T12:04:44;2.28;;;1.40;;
12650;SDS011;6390;49.400;8.670;2022-11-15T12:07:23;2.17;;;1.25;;
12650;SDS011;6390;49.400;8.670;2022-11-15T12:10:01;1.65;;;1.27;;
12650;SDS011;6390;49.400;8.670;2022-11-15T12:13:10;2.17;;;1.25;;
12650;SDS011;6390;49.400;8.670;2022-11-15T12:15:50;2.67;;;1.20;;
12650;SDS011;6390;49.400;8.670;2022-11-15T12:18:24;1.40;;;1.20;;
12650;SDS011;6390;49.400;8.670;2022-11-15T12:20:55;1.48;;;1.10;;
12650;SDS011;6390;49.400;8.670;2022-11-15T12:23:27;1.40;;;1.30;;
12650;SDS011;6390;49.400;8.670;2022-11-15T12:26:04;1.48;;;1.10;;
12650;SDS011;6390;49.400;8.670;2022-11-15T12:28:38;3.20;;;1.40;;
12650;SDS011;6390;49.400;8.670;2022-11-15T12:31:47;1.20;;;1.10;;
12650;SDS011;6390;49.400;8.670;2022-11-15T12:36:46;1.20;;;1.10;;
12650;SDS011;6390;49.400;8.670;2022-11-15T12:39:15;1.38;;;0.98;;
12650;SDS011;6390;49.400;8.670;2022-11-15T12:47:03;1.20;;;1.10;;
12650;SDS011;6390;49.400;8.670;2022-11-15T12:59:55;2.03;;;1.40;;
12650;SDS011;6390;49.400;8.670;2022-11-15T13:31:26;2.13;;;1.40;;
12650;SDS011;6390;49.400;8.670;2022-11-15T13:34:12;1.40;;;1.30;;
12650;SDS011;6390;49.400;8.670;2022-11-15T13:36:42;1.40;;;1.30;;
12650;SDS011;6390;49.400;8.670;2022-11-15T13:42:02;2.15;;;1.60;;
12650;SDS011;6390;49.400;8.670;2022-11-15T13:44:32;2.28;;;1.45;;
12650;SDS011;6390;49.400;8.670;2022-11-15T13:47:32;2.83;;;1.20;;
12650;SDS011;6390;49.400;8.670;2022-11-15T13:49:52;1.75;;;1.38;;
12650;SDS011;6390;49.400;8.670;2022-11-15T13:52:27;2.25;;;1.30;;
12650;SDS011;6390;49.400;8.670;2022-11-15T13:55:16;1.92;;;1.40;;
12650;SDS011;6390;49.400;8.670;2022-11-15T13:57:48;3.63;;;1.40;;
12650;SDS011;6390;49.400;8.670;2022-11-15T14:03:06;1.45;;;1.30;;
12650;SDS011;6390;49.400;8.670;2022-11-15T14:06:12;1.98;;;1.40;;
12650;SDS011;6390;49.400;8.670;2022-11-15T14:11:34;1.38;;;1.27;;
12650;SDS011;6390;49.400;8.670;2022-11-15T14:16:54;1.05;;;1.00;;
12650;SDS011;6390;49.400;8.670;2022-11-15T14:24:37;2.00;;;1.40;;
12650;SDS011;6390;49.400;8.670;2022-11-15T14:27:19;1.50;;;1.40;;
12650;SDS011;6390;49.400;8.670;2022-11-15T14:29:54;1.35;;;1.25;;
12650;SDS011;6390;49.400;8.670;2022-11-15T14:32:21;1.50;;;1.20;;
12650;SDS011;6390;49.400;8.670;2022-11-15T14:34:57;1.40;;;1.30;;
12650;SDS011;6390;49.400;8.670;2022-11-15T14:37:28;1.35;;;1.25;;
12650;SDS011;6390;49.400;8.670;2022-11-15T14:39:59;7.40;;;1.48;;
12650;SDS011;6390;49.400;8.670;2022-11-15T14:42:25;3.83;;;1.23;;
12650;SDS011;6390;49.400;8.670;2022-11-15T14:44:52;2.85;;;1.55;;
12650;SDS011;6390;49.400;8.670;2022-11-15T14:47:18;1.33;;;1.23;;
12650;SDS011;6390;49.400;8.670;2022-11-15T14:49:44;2.55;;;1.52;;
12650;SDS011;6390;49.400;8.670;2022-11-15T14:52:27;2.45;;;1.38;;
12650;SDS011;6390;49.400;8.670;2022-11-15T14:54:58;7.47;;;1.60;;
12650;SDS011;6390;49.400;8.670;2022-11-15T14:57:26;1.90;;;1.50;;
12650;SDS011;6390;49.400;8.670;2022-11-15T14:59:52;3.05;;;1.60;;
12650;SDS011;6390;49.400;8.670;2022-11-15T15:02:25;2.55;;;1.50;;
12650;SDS011;6390;49.400;8.670;2022-11-15T15:04:52;2.30;;;1.58;;
12650;SDS011;6390;49.400;8.670;2022-11-15T15:07:19;4.60;;;1.60;;
12650;SDS011;6390;49.400;8.670;2022-11-15T15:09:45;4.53;;;1.80;;
12650;SDS011;6390;49.400;8.670;2022-11-15T15:12:20;5.95;;;1.85;;
12650;SDS011;6390;49.400;8.670;2022-11-15T15:14:48;2.70;;;1.70;;
12650;SDS011;6390;49.400;8.670;2022-11-15T15:17:15;4.00;;;1.80;;
12650;SDS011;6390;49.400;8.670;2022-11-15T15:19:42;2.28;;;1.60;;
12650;SDS011;6390;49.400;8.670;2022-11-15T15:22:10;2.45;;;1.83;;
12650;SDS011;6390;49.400;8.670;2022-11-15T15:24:40;3.50;;;1.65;;
12650;SDS011;6390;49.400;8.670;2022-11-15T15:27:07;2.20;;;1.70;;
12650;SDS011;6390;49.400;8.670;2022-11-15T15:29:34;3.30;;;1.80;;
12650;SDS011;6390;49.400;8.670;2022-11-15T15:32:00;1.80;;;1.70;;
12650;SDS011;6390;49.400;8.670;2022-11-15T15:34:26;3.05;;;1.70;;
12650;SDS011;6390;49.400;8.670;2022-11-15T15:39:52;2.00;;;1.80;;
12650;SDS011;6390;49.400;8.670;2022-11-15T15:42:21;3.42;;;2.17;;
12650;SDS011;6390;49.400;8.670;2022-11-15T15:44:51;2.50;;;1.95;;
12650;SDS011;6390;49.400;8.670;2022-11-15T15:47:21;2.00;;;1.80;;
12650;SDS011;6390;49.400;8.670;2022-11-15T15:49:48;1.90;;;1.70;;
12650;SDS011;6390;49.400;8.670;2022-11-15T15:52:16;3.25;;;1.95;;
12650;SDS011;6390;49.400;8.670;2022-11-15T15:54:42;2.22;;;2.03;;
12650;SDS011;6390;49.400;8.670;2022-11-15T15:57:08;2.13;;;1.77;;
12650;SDS011;6390;49.400;8.670;2022-11-15T15:59:38;2.17;;;1.90;;
12650;SDS011;6390;49.400;8.670;2022-11-15T16:02:04;5.43;;;2.00;;
12650;SDS011;6390;49.400;8.670;2022-11-15T16:04:30;3.53;;;1.90;;
12650;SDS011;6390;49.400;8.670;2022-11-15T16:07:00;2.45;;;2.00;;
12650;SDS011;6390;49.400;8.670;2022-11-15T16:09:27;3.20;;;2.13;;
12650;SDS011;6390;49.400;8.670;2022-11-15T16:12:12;2.08;;;1.88;;
12650;SDS011;6390;49.400;8.670;2022-11-15T16:14:39;3.47;;;2.15;;
12650;SDS011;6390;49.400;8.670;2022-11-15T16:17:05;2.88;;;1.90;;
12650;SDS011;6390;49.400;8.670;2022-11-15T16:19:33;2.30;;;2.10;;
12650;SDS011;6390;49.400;8.670;2022-11-15T16:21:59;2.63;;;1.80;;
12650;SDS011;6390;49.400;8.670;2022-11-15T16:24:25;2.75;;;1.90;;
12650;SDS011;6390;49.400;8.670;2022-11-15T16:26:51;3.60;;;1.98;;
12650;SDS011;6390;49.400;8.670;2022-11-15T16:29:17;3.42;;;2.03;;
12650;SDS011;6390;49.400;8.670;2022-11-15T16:31:43;4.38;;;1.90;;
12650;SDS011;6390;49.400;8.670;2022-11-15T16:34:09;2.13;;;1.70;;
12650;SDS011;6390;49.400;8.670;2022-11-15T16:36:35;2.50;;;1.90;;
12650;SDS011;6390;49.400;8.670;2022-11-15T16:39:02;2.38;;;1.60;;
12650;SDS011;6390;49.400;8.670;2022-11-15T16:41:29;2.60;;;1.58;;
12650;SDS011;6390;49.400;8.670;2022-11-15T16:43:55;1.83;;;1.70;;
12650;SDS011;6390;49.400;8.670;2022-11-15T16:46:22;2.55;;;1.80;;
12650;SDS011;6390;49.400;8.670;2022-11-15T16:48:50;1.60;;;1.50;;
12650;SDS011;6390;49.400;8.670;2022-11-15T16:51:18;3.15;;;1.77;;
12650;SDS011;6390;49.400;8.670;2022-11-15T16:53:44;3.67;;;1.60;;
12650;SDS011;6390;49.400;8.670;2022-11-15T16:56:17;1.90;;;1.50;;
12650;SDS011;6390;49.400;8.670;2022-11-15T16:58:52;2.60;;;1.40;;
12650;SDS011;6390;49.400;8.670;2022-11-15T17:01:26;4.38;;;1.80;;
12650;SDS011;6390;49.400;8.670;2022-11-15T17:04:00;1.60;;;1.50;;
12650;SDS011;6390;49.400;8.670;2022-11-15T17:06:37;1.73;;;1.40;;
12650;SDS011;6390;49.400;8.670;2022-11-15T17:09:10;2.58;;;1.33;;
12650;SDS011;6390;49.400;8.670;2022-11-15T17:11:44;2.80;;;1.40;;
12650;SDS011;6390;49.400;8.670;2022-11-15T17:14:10;1.63;;;1.52;;
12650;SDS011;6390;49.400;8.670;2022-11-15T17:16:37;1.92;;;1.50;;
12650;SDS011;6390;49.400;8.670;2022-11-15T17:19:10;1.75;;;1.40;;
12650;SDS011;6390;49.400;8.670;2022-11-15T17:21:38;5.60;;;3.10;;
12650;SDS011;6390;49.400;8.670;2022-11-15T17:24:05;6.05;;;3.90;;
12650;SDS011;6390;49.400;8.670;2022-11-15T17:26:31;3.38;;;2.47;;
12650;SDS011;6390;49.400;8.670;2022-11-15T17:28:57;2.30;;;2.00;;
12650;SDS011;6390;49.400;8.670;2022-11-15T17:31:25;3.00;;;2.00;;
12650;SDS011;6390;49.400;8.670;2022-11-15T17:33:54;2.05;;;1.85;;
12650;SDS011;6390;49.400;8.670;2022-11-15T17:36:20;2.33;;;1.58;;
12650;SDS011;6390;49.400;8.670;2022-11-15T17:38:46;1.90;;;1.80;;
12650;SDS011;6390;49.400;8.670;2022-11-15T17:41:16;2.38;;;1.77;;
12650;SDS011;6390;49.400;8.670;2022-11-15T17:43:42;2.10;;;1.90;;